sensor_id;sensor_type;location;lat;lon;timestamp;P1;durP1;ratioP1;P2;durP2;ratioP2
69937;SDS011;57248;47.320;15.998;2022-11-20T00:01:55;44.37;;;13.93;;
69937;SDS011;57248;47.320;15.998;2022-11-20T00:04:20;39.80;;;12.90;;
69937;SDS011;57248;47.320;15.998;2022-11-20T00:06:52;42.27;;;13.63;;
69937;SDS011;57248;47.320;15.998;2022-11-20T00:09:17;45.30;;;14.07;;
69937;SDS011;57248;47.320;15.998;2022-11-20T00:11:49;48.50;;;14.07;;
69937;SDS011;57248;47.320;15.998;2022-11-20T00:14:21;46.08;;;14.35;;
69937;SDS011;57248;47.320;15.998;2022-11-20T00:16:53;46.22;;;14.07;;
69937;SDS011;57248;47.320;15.998;2022-11-20T00:19:25;47.00;;;14.45;;
69937;SDS011;57248;47.320;15.998;2022-11-20T00:21:50;41.43;;;13.70;;
69937;SDS011;57248;47.320;15.998;2022-11-20T00:24:25;40.85;;;13.10;;
69937;SDS011;57248;47.320;15.998;2022-11-20T00:26:57;42.55;;;13.32;;
69937;SDS011;57248;47.320;15.998;2022-11-20T00:29:29;41.30;;;14.52;;
69937;SDS011;57248;47.320;15.998;2022-11-20T00:32:01;45.73;;;13.67;;
69937;SDS011;57248;47.320;15.998;2022-11-20T00:34:33;43.30;;;13.25;;
69937;SDS011;57248;47.320;15.998;2022-11-20T00:37:05;42.63;;;13.15;;
69937;SDS011;57248;47.320;15.998;2022-11-20T00:39:37;42.25;;;14.10;;
69937;SDS011;57248;47.320;15.998;2022-11-20T00:42:09;41.78;;;14.05;;
69937;SDS011;57248;47.320;15.998;2022-11-20T00:44:41;46.77;;;14.50;;
69937;SDS011;57248;47.320;15.998;2022-11-20T00:47:13;41.55;;;13.32;;
69937;SDS011;57248;47.320;15.998;2022-11-20T00:49:45;45.65;;;13.23;;
69937;SDS011;57248;47.320;15.998;2022-11-20T00:52:10;40.90;;;13.10;;
69937;SDS011;57248;47.320;15.998;2022-11-20T00:54:42;42.28;;;13.80;;
69937;SDS011;57248;47.320;15.998;2022-11-20T00:57:21;44.72;;;13.57;;
69937;SDS011;57248;47.320;15.998;2022-11-20T00:59:53;41.05;;;13.52;;
69937;SDS011;57248;47.320;15.998;2022-11-20T01:02:25;55.77;;;13.90;;
69937;SDS011;57248;47.320;15.998;2022-11-20T01:04:57;49.30;;;14.63;;
69937;SDS011;57248;47.320;15.998;2022-11-20T01:07:22;48.00;;;13.37;;
69937;SDS011;57248;47.320;15.998;2022-11-20T01:09:54;50.25;;;15.10;;
69937;SDS011;57248;47.320;15.998;2022-11-20T01:12:26;46.15;;;14.02;;
69937;SDS011;57248;47.320;15.998;2022-11-20T01:14:58;51.38;;;14.50;;
69937;SDS011;57248;47.320;15.998;2022-11-20T01:17:30;42.00;;;12.57;;
69937;SDS011;57248;47.320;15.998;2022-11-20T01:19:56;44.57;;;13.23;;
69937;SDS011;57248;47.320;15.998;2022-11-20T01:22:28;48.15;;;13.80;;
69937;SDS011;57248;47.320;15.998;2022-11-20T01:25:00;46.83;;;13.10;;
69937;SDS011;57248;47.320;15.998;2022-11-20T01:27:32;47.10;;;14.13;;
69937;SDS011;57248;47.320;15.998;2022-11-20T01:30:04;50.33;;;14.23;;
69937;SDS011;57248;47.320;15.998;2022-11-20T01:32:36;47.63;;;13.50;;
69937;SDS011;57248;47.320;15.998;2022-11-20T01:35:08;48.17;;;13.45;;
69937;SDS011;57248;47.320;15.998;2022-11-20T01:37:41;42.92;;;14.13;;
69937;SDS011;57248;47.320;15.998;2022-11-20T01:40:13;42.55;;;13.50;;
69937;SDS011;57248;47.320;15.998;2022-11-20T01:42:47;43.80;;;13.07;;
69937;SDS011;57248;47.320;15.998;2022-11-20T01:51:33;42.20;;;12.80;;
69937;SDS011;57248;47.320;15.998;2022-11-20T01:54:22;40.78;;;12.55;;
69937;SDS011;57248;47.320;15.998;2022-11-20T01:57:09;43.20;;;13.68;;
69937;SDS011;57248;47.320;15.998;2022-11-20T01:59:44;43.57;;;13.53;;
69937;SDS011;57248;47.320;15.998;2022-11-20T02:02:25;42.22;;;12.68;;
69937;SDS011;57248;47.320;15.998;2022-11-20T02:04:57;44.97;;;13.20;;
69937;SDS011;57248;47.320;15.998;2022-11-20T02:07:36;45.58;;;14.02;;
69937;SDS011;57248;47.320;15.998;2022-11-20T02:10:09;40.83;;;13.75;;
69937;SDS011;57248;47.320;15.998;2022-11-20T02:12:41;41.43;;;12.83;;
69937;SDS011;57248;47.320;15.998;2022-11-20T02:15:32;48.10;;;14.65;;
69937;SDS011;57248;47.320;15.998;2022-11-20T02:18:05;43.90;;;13.20;;
69937;SDS011;57248;47.320;15.998;2022-11-20T02:20:37;47.67;;;14.15;;
69937;SDS011;57248;47.320;15.998;2022-11-20T02:23:12;46.00;;;14.40;;
69937;SDS011;57248;47.320;15.998;2022-11-20T02:25:51;48.40;;;14.27;;
69937;SDS011;57248;47.320;15.998;2022-11-20T02:28:25;44.20;;;13.52;;
69937;SDS011;57248;47.320;15.998;2022-11-20T02:30:57;46.63;;;14.13;;
69937;SDS011;57248;47.320;15.998;2022-11-20T02:33:29;42.67;;;13.13;;
69937;SDS011;57248;47.320;15.998;2022-11-20T02:36:01;43.70;;;13.82;;
69937;SDS011;57248;47.320;15.998;2022-11-20T02:38:26;48.27;;;13.77;;
69937;SDS011;57248;47.320;15.998;2022-11-20T02:40:58;47.35;;;13.50;;
69937;SDS011;57248;47.320;15.998;2022-11-20T02:43:30;40.23;;;13.93;;
69937;SDS011;57248;47.320;15.998;2022-11-20T02:46:02;44.17;;;13.43;;
69937;SDS011;57248;47.320;15.998;2022-11-20T02:48:34;43.17;;;13.38;;
69937;SDS011;57248;47.320;15.998;2022-11-20T02:51:06;41.78;;;12.80;;
69937;SDS011;57248;47.320;15.998;2022-11-20T02:53:45;47.78;;;13.15;;
69937;SDS011;57248;47.320;15.998;2022-11-20T02:56:17;46.43;;;14.57;;
69937;SDS011;57248;47.320;15.998;2022-11-20T02:58:49;47.00;;;13.93;;
69937;SDS011;57248;47.320;15.998;2022-11-20T03:01:21;45.67;;;13.10;;
69937;SDS011;57248;47.320;15.998;2022-11-20T03:03:54;40.17;;;12.20;;
69937;SDS011;57248;47.320;15.998;2022-11-20T03:06:26;45.75;;;13.30;;
69937;SDS011;57248;47.320;15.998;2022-11-20T03:08:58;43.63;;;13.93;;
69937;SDS011;57248;47.320;15.998;2022-11-20T03:11:23;36.05;;;12.40;;
69937;SDS011;57248;47.320;15.998;2022-11-20T03:13:55;40.90;;;12.77;;
69937;SDS011;57248;47.320;15.998;2022-11-20T03:16:27;39.08;;;12.93;;
69937;SDS011;57248;47.320;15.998;2022-11-20T03:18:59;45.50;;;13.65;;
69937;SDS011;57248;47.320;15.998;2022-11-20T03:21:34;32.83;;;11.60;;
69937;SDS011;57248;47.320;15.998;2022-11-20T03:24:07;48.58;;;12.90;;
69937;SDS011;57248;47.320;15.998;2022-11-20T03:26:39;40.17;;;13.00;;
69937;SDS011;57248;47.320;15.998;2022-11-20T03:29:12;43.25;;;13.43;;
69937;SDS011;57248;47.320;15.998;2022-11-20T03:31:44;39.60;;;13.13;;
69937;SDS011;57248;47.320;15.998;2022-11-20T03:34:16;40.78;;;13.35;;
69937;SDS011;57248;47.320;15.998;2022-11-20T03:36:48;42.80;;;13.40;;
69937;SDS011;57248;47.320;15.998;2022-11-20T03:39:13;43.93;;;12.97;;
69937;SDS011;57248;47.320;15.998;2022-11-20T03:41:45;41.50;;;13.10;;
69937;SDS011;57248;47.320;15.998;2022-11-20T03:44:11;41.47;;;12.60;;
69937;SDS011;57248;47.320;15.998;2022-11-20T03:46:43;41.53;;;12.57;;
69937;SDS011;57248;47.320;15.998;2022-11-20T03:49:15;44.58;;;13.10;;
69937;SDS011;57248;47.320;15.998;2022-11-20T03:51:47;37.77;;;12.07;;
69937;SDS011;57248;47.320;15.998;2022-11-20T03:54:19;38.03;;;12.77;;
69937;SDS011;57248;47.320;15.998;2022-11-20T03:56:58;38.65;;;12.15;;
69937;SDS011;57248;47.320;15.998;2022-11-20T03:59:30;40.97;;;12.07;;
69937;SDS011;57248;47.320;15.998;2022-11-20T04:02:02;39.40;;;12.18;;
69937;SDS011;57248;47.320;15.998;2022-11-20T04:04:34;34.47;;;12.27;;
69937;SDS011;57248;47.320;15.998;2022-11-20T04:07:06;38.92;;;13.85;;
69937;SDS011;57248;47.320;15.998;2022-11-20T04:09:38;42.38;;;12.48;;
69937;SDS011;57248;47.320;15.998;2022-11-20T04:12:10;35.83;;;11.02;;
69937;SDS011;57248;47.320;15.998;2022-11-20T04:14:42;37.00;;;11.10;;
69937;SDS011;57248;47.320;15.998;2022-11-20T04:17:14;37.30;;;11.93;;
69937;SDS011;57248;47.320;15.998;2022-11-20T04:19:46;41.95;;;13.20;;
69937;SDS011;57248;47.320;15.998;2022-11-20T04:22:18;34.33;;;11.70;;
69937;SDS011;57248;47.320;15.998;2022-11-20T04:24:50;39.33;;;12.02;;
69937;SDS011;57248;47.320;15.998;2022-11-20T04:27:22;38.60;;;11.95;;
69937;SDS011;57248;47.320;15.998;2022-11-20T04:29:55;43.10;;;13.60;;
69937;SDS011;57248;47.320;15.998;2022-11-20T04:32:27;41.70;;;13.15;;
69937;SDS011;57248;47.320;15.998;2022-11-20T04:34:59;40.38;;;12.95;;
69937;SDS011;57248;47.320;15.998;2022-11-20T04:37:31;41.17;;;12.93;;
69937;SDS011;57248;47.320;15.998;2022-11-20T04:40:03;41.53;;;13.30;;
69937;SDS011;57248;47.320;15.998;2022-11-20T04:42:37;35.47;;;11.47;;
69937;SDS011;57248;47.320;15.998;2022-11-20T04:45:09;39.80;;;12.32;;
69937;SDS011;57248;47.320;15.998;2022-11-20T04:47:41;36.83;;;11.68;;
69937;SDS011;57248;47.320;15.998;2022-11-20T04:50:13;48.00;;;12.90;;
69937;SDS011;57248;47.320;15.998;2022-11-20T04:52:52;40.50;;;13.13;;
69937;SDS011;57248;47.320;15.998;2022-11-20T04:55:24;43.97;;;12.53;;
69937;SDS011;57248;47.320;15.998;2022-11-20T04:58:03;43.25;;;12.77;;
69937;SDS011;57248;47.320;15.998;2022-11-20T05:00:35;44.42;;;12.52;;
69937;SDS011;57248;47.320;15.998;2022-11-20T05:03:07;41.10;;;12.40;;
69937;SDS011;57248;47.320;15.998;2022-11-20T05:05:39;45.47;;;13.32;;
69937;SDS011;57248;47.320;15.998;2022-11-20T05:08:04;43.33;;;13.43;;
69937;SDS011;57248;47.320;15.998;2022-11-20T05:10:36;47.03;;;13.48;;
69937;SDS011;57248;47.320;15.998;2022-11-20T05:13:08;39.07;;;11.83;;
69937;SDS011;57248;47.320;15.998;2022-11-20T05:15:40;54.03;;;17.45;;
69937;SDS011;57248;47.320;15.998;2022-11-20T05:18:05;40.23;;;13.17;;
69937;SDS011;57248;47.320;15.998;2022-11-20T05:20:37;37.53;;;11.82;;
69937;SDS011;57248;47.320;15.998;2022-11-20T05:23:09;39.35;;;11.95;;
69937;SDS011;57248;47.320;15.998;2022-11-20T05:25:34;38.80;;;12.60;;
69937;SDS011;57248;47.320;15.998;2022-11-20T05:28:06;35.65;;;11.23;;
69937;SDS011;57248;47.320;15.998;2022-11-20T05:30:39;32.30;;;10.73;;
69937;SDS011;57248;47.320;15.998;2022-11-20T05:33:11;30.50;;;10.32;;
69937;SDS011;57248;47.320;15.998;2022-11-20T05:35:43;32.27;;;10.00;;
69937;SDS011;57248;47.320;15.998;2022-11-20T05:38:16;35.03;;;10.57;;
69937;SDS011;57248;47.320;15.998;2022-11-20T05:40:48;30.45;;;10.30;;
69937;SDS011;57248;47.320;15.998;2022-11-20T05:43:20;30.38;;;10.02;;
69937;SDS011;57248;47.320;15.998;2022-11-20T05:45:52;35.50;;;9.57;;
69937;SDS011;57248;47.320;15.998;2022-11-20T05:48:25;30.23;;;10.17;;
69937;SDS011;57248;47.320;15.998;2022-11-20T05:50:57;35.78;;;11.50;;
69937;SDS011;57248;47.320;15.998;2022-11-20T05:53:30;41.92;;;12.77;;
69937;SDS011;57248;47.320;15.998;2022-11-20T05:56:05;44.72;;;12.93;;
69937;SDS011;57248;47.320;15.998;2022-11-20T05:58:43;44.85;;;13.10;;
69937;SDS011;57248;47.320;15.998;2022-11-20T06:01:17;44.03;;;13.80;;
69937;SDS011;57248;47.320;15.998;2022-11-20T06:03:51;43.30;;;13.40;;
69937;SDS011;57248;47.320;15.998;2022-11-20T06:06:24;45.58;;;13.43;;
69937;SDS011;57248;47.320;15.998;2022-11-20T06:08:57;41.88;;;12.15;;
69937;SDS011;57248;47.320;15.998;2022-11-20T06:11:30;46.03;;;14.60;;
69937;SDS011;57248;47.320;15.998;2022-11-20T06:14:02;46.13;;;13.57;;
69937;SDS011;57248;47.320;15.998;2022-11-20T06:16:34;42.97;;;13.07;;
69937;SDS011;57248;47.320;15.998;2022-11-20T06:19:06;48.40;;;13.90;;
69937;SDS011;57248;47.320;15.998;2022-11-20T06:21:38;49.40;;;13.43;;
69937;SDS011;57248;47.320;15.998;2022-11-20T06:24:10;46.65;;;13.23;;
69937;SDS011;57248;47.320;15.998;2022-11-20T06:26:42;40.53;;;12.23;;
69937;SDS011;57248;47.320;15.998;2022-11-20T06:29:21;34.47;;;12.02;;
69937;SDS011;57248;47.320;15.998;2022-11-20T06:31:53;40.50;;;12.75;;
69937;SDS011;57248;47.320;15.998;2022-11-20T06:34:18;37.37;;;11.47;;
69937;SDS011;57248;47.320;15.998;2022-11-20T06:36:50;36.15;;;11.60;;
69937;SDS011;57248;47.320;15.998;2022-11-20T06:39:22;37.47;;;11.98;;
69937;SDS011;57248;47.320;15.998;2022-11-20T06:41:55;37.22;;;10.93;;
69937;SDS011;57248;47.320;15.998;2022-11-20T06:44:27;33.10;;;10.57;;
69937;SDS011;57248;47.320;15.998;2022-11-20T06:47:00;37.42;;;10.95;;
69937;SDS011;57248;47.320;15.998;2022-11-20T06:49:32;37.80;;;11.45;;
69937;SDS011;57248;47.320;15.998;2022-11-20T06:52:06;34.58;;;11.27;;
69937;SDS011;57248;47.320;15.998;2022-11-20T06:54:38;35.03;;;11.57;;
69937;SDS011;57248;47.320;15.998;2022-11-20T06:57:17;30.73;;;11.07;;
69937;SDS011;57248;47.320;15.998;2022-11-20T06:59:49;35.10;;;11.88;;
69937;SDS011;57248;47.320;15.998;2022-11-20T07:02:21;33.55;;;11.27;;
69937;SDS011;57248;47.320;15.998;2022-11-20T07:04:53;249.48;;;87.25;;
69937;SDS011;57248;47.320;15.998;2022-11-20T07:07:25;64.47;;;24.10;;
69937;SDS011;57248;47.320;15.998;2022-11-20T07:09:50;42.57;;;14.97;;
69937;SDS011;57248;47.320;15.998;2022-11-20T07:12:22;43.00;;;13.55;;
69937;SDS011;57248;47.320;15.998;2022-11-20T07:14:55;43.37;;;13.87;;
69937;SDS011;57248;47.320;15.998;2022-11-20T07:17:28;41.75;;;13.60;;
69937;SDS011;57248;47.320;15.998;2022-11-20T07:20:00;41.40;;;14.65;;
69937;SDS011;57248;47.320;15.998;2022-11-20T07:22:25;52.47;;;19.00;;
69937;SDS011;57248;47.320;15.998;2022-11-20T07:24:58;51.03;;;16.17;;
69937;SDS011;57248;47.320;15.998;2022-11-20T07:27:23;41.37;;;13.97;;
69937;SDS011;57248;47.320;15.998;2022-11-20T07:29:55;43.22;;;13.50;;
69937;SDS011;57248;47.320;15.998;2022-11-20T07:32:27;43.75;;;15.05;;
69937;SDS011;57248;47.320;15.998;2022-11-20T07:34:59;44.03;;;15.95;;
69937;SDS011;57248;47.320;15.998;2022-11-20T07:37:33;41.42;;;13.00;;
69937;SDS011;57248;47.320;15.998;2022-11-20T07:40:06;44.13;;;14.00;;
69937;SDS011;57248;47.320;15.998;2022-11-20T07:42:31;40.80;;;13.40;;
69937;SDS011;57248;47.320;15.998;2022-11-20T07:45:04;37.20;;;12.27;;
69937;SDS011;57248;47.320;15.998;2022-11-20T07:47:37;39.50;;;13.67;;
69937;SDS011;57248;47.320;15.998;2022-11-20T07:50:02;35.25;;;12.23;;
69937;SDS011;57248;47.320;15.998;2022-11-20T07:52:35;33.03;;;11.60;;
69937;SDS011;57248;47.320;15.998;2022-11-20T07:55:14;32.78;;;10.93;;
69937;SDS011;57248;47.320;15.998;2022-11-20T07:57:46;28.30;;;10.60;;
69937;SDS011;57248;47.320;15.998;2022-11-20T08:00:25;35.35;;;12.23;;
69937;SDS011;57248;47.320;15.998;2022-11-20T08:02:58;36.65;;;12.38;;
69937;SDS011;57248;47.320;15.998;2022-11-20T08:05:30;31.50;;;11.50;;
69937;SDS011;57248;47.320;15.998;2022-11-20T08:07:55;32.03;;;11.93;;
69937;SDS011;57248;47.320;15.998;2022-11-20T08:10:27;32.60;;;10.97;;
69937;SDS011;57248;47.320;15.998;2022-11-20T08:12:59;38.60;;;14.50;;
69937;SDS011;57248;47.320;15.998;2022-11-20T08:15:50;34.38;;;12.00;;
69937;SDS011;57248;47.320;15.998;2022-11-20T08:18:23;33.42;;;12.77;;
69937;SDS011;57248;47.320;15.998;2022-11-20T08:20:48;56.93;;;18.50;;
69937;SDS011;57248;47.320;15.998;2022-11-20T08:23:22;33.83;;;12.50;;
69937;SDS011;57248;47.320;15.998;2022-11-20T08:25:48;34.40;;;12.90;;
69937;SDS011;57248;47.320;15.998;2022-11-20T08:28:22;33.07;;;11.73;;
69937;SDS011;57248;47.320;15.998;2022-11-20T08:30:58;27.50;;;10.30;;
69937;SDS011;57248;47.320;15.998;2022-11-20T08:33:33;27.42;;;10.45;;
69937;SDS011;57248;47.320;15.998;2022-11-20T08:36:05;29.45;;;10.13;;
69937;SDS011;57248;47.320;15.998;2022-11-20T08:38:38;29.75;;;11.02;;
69937;SDS011;57248;47.320;15.998;2022-11-20T08:41:10;31.37;;;10.83;;
69937;SDS011;57248;47.320;15.998;2022-11-20T08:43:59;36.40;;;13.73;;
69937;SDS011;57248;47.320;15.998;2022-11-20T08:46:40;35.42;;;12.88;;
69937;SDS011;57248;47.320;15.998;2022-11-20T08:49:13;30.23;;;11.57;;
69937;SDS011;57248;47.320;15.998;2022-11-20T08:51:47;29.00;;;10.85;;
69937;SDS011;57248;47.320;15.998;2022-11-20T08:54:23;30.67;;;11.43;;
69937;SDS011;57248;47.320;15.998;2022-11-20T08:57:09;26.52;;;10.85;;
69937;SDS011;57248;47.320;15.998;2022-11-20T08:59:41;33.28;;;13.70;;
69937;SDS011;57248;47.320;15.998;2022-11-20T09:02:13;28.85;;;10.77;;
69937;SDS011;57248;47.320;15.998;2022-11-20T09:04:38;29.33;;;10.67;;
69937;SDS011;57248;47.320;15.998;2022-11-20T09:07:10;25.08;;;9.88;;
69937;SDS011;57248;47.320;15.998;2022-11-20T09:09:42;28.63;;;10.90;;
69937;SDS011;57248;47.320;15.998;2022-11-20T09:12:14;27.38;;;10.32;;
69937;SDS011;57248;47.320;15.998;2022-11-20T09:14:46;29.63;;;10.63;;
69937;SDS011;57248;47.320;15.998;2022-11-20T09:17:18;28.38;;;10.07;;
69937;SDS011;57248;47.320;15.998;2022-11-20T09:19:45;25.27;;;10.23;;
69937;SDS011;57248;47.320;15.998;2022-11-20T09:22:17;26.10;;;10.32;;
69937;SDS011;57248;47.320;15.998;2022-11-20T09:24:42;28.20;;;11.57;;
69937;SDS011;57248;47.320;15.998;2022-11-20T09:27:14;26.45;;;10.95;;
69937;SDS011;57248;47.320;15.998;2022-11-20T09:29:39;28.43;;;10.50;;
69937;SDS011;57248;47.320;15.998;2022-11-20T09:32:12;32.55;;;13.27;;
69937;SDS011;57248;47.320;15.998;2022-11-20T09:34:44;25.95;;;10.73;;
69937;SDS011;57248;47.320;15.998;2022-11-20T09:37:17;25.37;;;10.60;;
69937;SDS011;57248;47.320;15.998;2022-11-20T09:39:43;24.50;;;10.20;;
69937;SDS011;57248;47.320;15.998;2022-11-20T09:48:01;36.65;;;16.45;;
69937;SDS011;57248;47.320;15.998;2022-11-20T09:53:23;27.42;;;12.25;;
69937;SDS011;57248;47.320;15.998;2022-11-20T09:56:14;24.30;;;10.95;;
69937;SDS011;57248;47.320;15.998;2022-11-20T09:58:50;24.27;;;9.98;;
69937;SDS011;57248;47.320;15.998;2022-11-20T10:01:26;21.63;;;10.07;;
69937;SDS011;57248;47.320;15.998;2022-11-20T10:07:02;20.42;;;8.70;;
69937;SDS011;57248;47.320;15.998;2022-11-20T10:09:44;20.52;;;8.40;;
69937;SDS011;57248;47.320;15.998;2022-11-20T10:12:27;21.15;;;10.15;;
69937;SDS011;57248;47.320;15.998;2022-11-20T10:27:14;20.08;;;8.05;;
69937;SDS011;57248;47.320;15.998;2022-11-20T10:30:00;20.17;;;8.52;;
69937;SDS011;57248;47.320;15.998;2022-11-20T10:32:38;17.53;;;7.77;;
69937;SDS011;57248;47.320;15.998;2022-11-20T10:37:56;17.48;;;8.77;;
69937;SDS011;57248;47.320;15.998;2022-11-20T10:43:11;20.17;;;8.93;;
69937;SDS011;57248;47.320;15.998;2022-11-20T10:45:56;19.50;;;8.40;;
69937;SDS011;57248;47.320;15.998;2022-11-20T10:48:33;20.25;;;9.43;;
69937;SDS011;57248;47.320;15.998;2022-11-20T10:56:52;19.08;;;8.65;;
69937;SDS011;57248;47.320;15.998;2022-11-20T11:02:29;18.05;;;8.38;;
69937;SDS011;57248;47.320;15.998;2022-11-20T11:05:12;17.23;;;8.80;;
69937;SDS011;57248;47.320;15.998;2022-11-20T11:07:55;18.83;;;8.55;;
69937;SDS011;57248;47.320;15.998;2022-11-20T11:15:58;20.30;;;9.13;;
69937;SDS011;57248;47.320;15.998;2022-11-20T11:18:31;21.92;;;10.07;;
69937;SDS011;57248;47.320;15.998;2022-11-20T11:21:04;19.85;;;9.10;;
69937;SDS011;57248;47.320;15.998;2022-11-20T11:23:38;20.00;;;9.02;;
69937;SDS011;57248;47.320;15.998;2022-11-20T11:26:06;17.37;;;8.77;;
69937;SDS011;57248;47.320;15.998;2022-11-20T11:29:00;17.70;;;8.85;;
69937;SDS011;57248;47.320;15.998;2022-11-20T11:31:35;19.75;;;8.82;;
69937;SDS011;57248;47.320;15.998;2022-11-20T11:34:10;18.98;;;9.55;;
69937;SDS011;57248;47.320;15.998;2022-11-20T11:36:52;18.40;;;8.90;;
69937;SDS011;57248;47.320;15.998;2022-11-20T11:39:28;18.70;;;9.03;;
69937;SDS011;57248;47.320;15.998;2022-11-20T11:42:02;17.38;;;8.70;;
69937;SDS011;57248;47.320;15.998;2022-11-20T11:44:29;19.35;;;9.20;;
69937;SDS011;57248;47.320;15.998;2022-11-20T11:47:22;19.42;;;8.50;;
69937;SDS011;57248;47.320;15.998;2022-11-20T11:52:52;17.48;;;8.68;;
69937;SDS011;57248;47.320;15.998;2022-11-20T11:56:08;20.10;;;9.60;;
69937;SDS011;57248;47.320;15.998;2022-11-20T11:58:46;18.80;;;8.63;;
69937;SDS011;57248;47.320;15.998;2022-11-20T12:04:04;21.23;;;9.93;;
69937;SDS011;57248;47.320;15.998;2022-11-20T12:06:47;19.55;;;9.15;;
69937;SDS011;57248;47.320;15.998;2022-11-20T12:09:26;19.38;;;9.05;;
69937;SDS011;57248;47.320;15.998;2022-11-20T12:12:10;20.20;;;9.70;;
69937;SDS011;57248;47.320;15.998;2022-11-20T12:14:48;21.80;;;9.13;;
69937;SDS011;57248;47.320;15.998;2022-11-20T12:17:24;20.10;;;9.13;;
69937;SDS011;57248;47.320;15.998;2022-11-20T12:19:56;20.23;;;8.85;;
69937;SDS011;57248;47.320;15.998;2022-11-20T12:22:31;21.88;;;9.00;;
69937;SDS011;57248;47.320;15.998;2022-11-20T12:30:55;17.57;;;7.67;;
69937;SDS011;57248;47.320;15.998;2022-11-20T12:45:28;18.47;;;8.33;;
69937;SDS011;57248;47.320;15.998;2022-11-20T12:57:46;15.70;;;8.07;;
69937;SDS011;57248;47.320;15.998;2022-11-20T13:00:25;15.17;;;7.50;;
69937;SDS011;57248;47.320;15.998;2022-11-20T13:03:09;15.63;;;7.28;;
69937;SDS011;57248;47.320;15.998;2022-11-20T13:08:42;14.05;;;7.40;;
69937;SDS011;57248;47.320;15.998;2022-11-20T13:11:39;16.40;;;7.50;;
69937;SDS011;57248;47.320;15.998;2022-11-20T13:17:15;14.02;;;6.75;;
69937;SDS011;57248;47.320;15.998;2022-11-20T13:19:53;12.57;;;6.55;;
69937;SDS011;57248;47.320;15.998;2022-11-20T13:22:29;13.80;;;6.57;;
69937;SDS011;57248;47.320;15.998;2022-11-20T13:25:27;13.30;;;6.78;;
69937;SDS011;57248;47.320;15.998;2022-11-20T13:30:49;7.70;;;4.03;;
69937;SDS011;57248;47.320;15.998;2022-11-20T13:38:48;6.88;;;2.85;;
69937;SDS011;57248;47.320;15.998;2022-11-20T13:41:29;6.73;;;2.90;;
69937;SDS011;57248;47.320;15.998;2022-11-20T13:46:57;11.45;;;4.85;;
69937;SDS011;57248;47.320;15.998;2022-11-20T13:49:39;12.95;;;5.65;;
69937;SDS011;57248;47.320;15.998;2022-11-20T14:01:10;4.68;;;1.90;;
69937;SDS011;57248;47.320;15.998;2022-11-20T14:03:46;5.68;;;2.20;;
69937;SDS011;57248;47.320;15.998;2022-11-20T14:06:25;9.18;;;4.45;;
69937;SDS011;57248;47.320;15.998;2022-11-20T14:09:00;8.83;;;3.83;;
69937;SDS011;57248;47.320;15.998;2022-11-20T14:11:32;7.07;;;2.80;;
69937;SDS011;57248;47.320;15.998;2022-11-20T14:14:16;6.25;;;2.67;;
69937;SDS011;57248;47.320;15.998;2022-11-20T14:16:50;7.05;;;3.25;;
69937;SDS011;57248;47.320;15.998;2022-11-20T14:19:25;9.07;;;3.58;;
69937;SDS011;57248;47.320;15.998;2022-11-20T14:24:40;6.28;;;2.88;;
69937;SDS011;57248;47.320;15.998;2022-11-20T14:27:11;12.77;;;6.00;;
69937;SDS011;57248;47.320;15.998;2022-11-20T14:29:45;10.00;;;3.70;;
69937;SDS011;57248;47.320;15.998;2022-11-20T14:32:19;7.70;;;3.25;;
69937;SDS011;57248;47.320;15.998;2022-11-20T14:34:57;9.57;;;4.90;;
69937;SDS011;57248;47.320;15.998;2022-11-20T14:37:33;9.27;;;4.47;;
69937;SDS011;57248;47.320;15.998;2022-11-20T14:40:31;10.60;;;4.30;;
69937;SDS011;57248;47.320;15.998;2022-11-20T14:43:15;8.13;;;3.40;;
69937;SDS011;57248;47.320;15.998;2022-11-20T14:46:04;8.38;;;3.55;;
69937;SDS011;57248;47.320;15.998;2022-11-20T14:48:49;4.07;;;1.73;;
69937;SDS011;57248;47.320;15.998;2022-11-20T14:51:28;15.82;;;8.98;;
69937;SDS011;57248;47.320;15.998;2022-11-20T14:54:09;24.80;;;16.87;;
69937;SDS011;57248;47.320;15.998;2022-11-20T14:57:04;7.90;;;3.85;;
69937;SDS011;57248;47.320;15.998;2022-11-20T14:59:36;6.82;;;3.03;;
69937;SDS011;57248;47.320;15.998;2022-11-20T15:04:46;8.40;;;3.50;;
69937;SDS011;57248;47.320;15.998;2022-11-20T15:07:24;7.40;;;3.35;;
69937;SDS011;57248;47.320;15.998;2022-11-20T15:12:38;9.57;;;2.85;;
69937;SDS011;57248;47.320;15.998;2022-11-20T15:15:25;9.65;;;3.92;;
69937;SDS011;57248;47.320;15.998;2022-11-20T15:17:58;10.20;;;4.37;;
69937;SDS011;57248;47.320;15.998;2022-11-20T15:20:31;9.93;;;3.75;;
69937;SDS011;57248;47.320;15.998;2022-11-20T15:23:09;9.82;;;3.97;;
69937;SDS011;57248;47.320;15.998;2022-11-20T15:25:47;11.45;;;4.75;;
69937;SDS011;57248;47.320;15.998;2022-11-20T15:28:36;10.48;;;3.95;;
69937;SDS011;57248;47.320;15.998;2022-11-20T15:31:11;10.87;;;4.00;;
69937;SDS011;57248;47.320;15.998;2022-11-20T15:33:44;8.80;;;3.65;;
69937;SDS011;57248;47.320;15.998;2022-11-20T15:36:16;9.52;;;3.47;;
69937;SDS011;57248;47.320;15.998;2022-11-20T15:38:48;12.65;;;5.15;;
69937;SDS011;57248;47.320;15.998;2022-11-20T15:41:20;7.93;;;3.22;;
69937;SDS011;57248;47.320;15.998;2022-11-20T15:43:53;9.47;;;3.20;;
69937;SDS011;57248;47.320;15.998;2022-11-20T15:46:26;7.72;;;2.78;;
69937;SDS011;57248;47.320;15.998;2022-11-20T15:48:59;8.48;;;2.38;;
69937;SDS011;57248;47.320;15.998;2022-11-20T15:51:35;7.45;;;2.53;;
69937;SDS011;57248;47.320;15.998;2022-11-20T15:54:12;7.00;;;2.90;;
69937;SDS011;57248;47.320;15.998;2022-11-20T15:56:55;6.77;;;2.60;;
69937;SDS011;57248;47.320;15.998;2022-11-20T15:59:27;7.50;;;3.05;;
69937;SDS011;57248;47.320;15.998;2022-11-20T16:01:59;8.93;;;3.70;;
69937;SDS011;57248;47.320;15.998;2022-11-20T16:04:31;9.15;;;3.60;;
69937;SDS011;57248;47.320;15.998;2022-11-20T16:07:03;10.20;;;3.90;;
69937;SDS011;57248;47.320;15.998;2022-11-20T16:09:35;9.80;;;3.70;;
69937;SDS011;57248;47.320;15.998;2022-11-20T16:12:09;12.43;;;4.53;;
69937;SDS011;57248;47.320;15.998;2022-11-20T16:15:02;13.45;;;4.72;;
69937;SDS011;57248;47.320;15.998;2022-11-20T16:17:53;11.02;;;4.45;;
69937;SDS011;57248;47.320;15.998;2022-11-20T16:20:18;11.57;;;4.80;;
69937;SDS011;57248;47.320;15.998;2022-11-20T16:22:51;9.20;;;3.45;;
69937;SDS011;57248;47.320;15.998;2022-11-20T16:25:24;10.02;;;3.30;;
69937;SDS011;57248;47.320;15.998;2022-11-20T16:27:58;11.10;;;4.17;;
69937;SDS011;57248;47.320;15.998;2022-11-20T16:30:31;10.10;;;4.13;;
69937;SDS011;57248;47.320;15.998;2022-11-20T16:33:09;9.00;;;3.70;;
69937;SDS011;57248;47.320;15.998;2022-11-20T16:35:46;18.17;;;6.93;;
69937;SDS011;57248;47.320;15.998;2022-11-20T16:38:18;14.60;;;6.43;;
69937;SDS011;57248;47.320;15.998;2022-11-20T16:40:50;15.83;;;6.57;;
69937;SDS011;57248;47.320;15.998;2022-11-20T16:43:22;16.50;;;7.25;;
69937;SDS011;57248;47.320;15.998;2022-11-20T16:45:54;18.08;;;7.18;;
69937;SDS011;57248;47.320;15.998;2022-11-20T16:48:26;13.48;;;5.57;;
69937;SDS011;57248;47.320;15.998;2022-11-20T16:50:52;10.83;;;5.17;;